createdAt,value
2023-04-25T04:05:07.555Z,12.75
2023-04-25T04:08:11.103Z,12.75
2023-04-25T04:11:14.476Z,12.26
2023-04-25T04:14:17.632Z,12.28
2023-04-25T04:17:19.864Z,12.23
2023-04-25T04:20:22.490Z,12.33
2023-04-25T04:23:25.017Z,12.39
2023-04-25T04:26:28.391Z,12.27
2023-04-25T04:29:31.090Z,12.38
2023-04-25T04:32:35.557Z,12.39
2023-04-25T04:35:39.306Z,12.41
2023-04-25T04:38:42.144Z,12.35
2023-04-25T04:41:46.309Z,12.17
2023-04-25T04:44:49.519Z,12.23
2023-04-25T04:47:53.597Z,12.17
2023-04-25T04:50:56.860Z,12.18
2023-04-25T04:54:03.175Z,12.27
2023-04-25T04:57:06.063Z,12.17
2023-04-25T05:00:11.751Z,12.09
2023-04-25T05:03:15.581Z,12.03
2023-04-25T05:06:19.601Z,11.89
2023-04-25T05:09:26.521Z,11.81
2023-04-25T05:12:29.567Z,11.81
2023-04-25T05:15:32.323Z,11.81
2023-04-25T05:18:34.657Z,11.69
2023-04-25T05:21:37.803Z,11.64
2023-04-25T05:24:40.494Z,11.53
2023-04-25T05:27:43.564Z,11.42
2023-04-25T05:30:45.989Z,11.32
2023-04-25T05:33:50.212Z,11.27
2023-04-25T05:36:53.221Z,11.11
2023-04-25T05:39:55.921Z,11.09
2023-04-25T05:42:59.713Z,11.18
2023-04-25T05:46:02.262Z,11.07
2023-04-25T05:49:04.513Z,11.18
2023-04-25T05:52:07.159Z,11.16
2023-04-25T05:55:09.889Z,11.06
2023-04-25T05:58:13.061Z,11.14
2023-04-25T06:01:15.372Z,11.11
2023-04-25T06:04:19.740Z,11.12
2023-04-25T06:07:22.018Z,11.21
2023-04-25T06:10:24.576Z,11.16
2023-04-25T06:13:26.945Z,11.33
2023-04-25T06:16:31.089Z,11.36
2023-04-25T06:19:34.336Z,11.34
2023-04-25T06:22:36.747Z,11.43
2023-04-25T06:25:39.340Z,11.60
2023-04-25T06:28:41.903Z,11.69
2023-04-25T06:31:44.652Z,11.80
2023-04-25T06:34:47.490Z,11.58
2023-04-25T06:37:50.120Z,11.84
2023-04-25T06:40:56.930Z,11.94
2023-04-25T06:43:59.061Z,12.04
2023-04-25T06:47:03.383Z,11.97
2023-04-25T06:50:06.879Z,12.18
2023-04-25T06:53:12.489Z,12.28
2023-04-25T06:56:15.734Z,12.39
2023-04-25T06:59:19.597Z,12.37
2023-04-25T07:02:22.799Z,12.46
2023-04-25T07:05:25.575Z,12.67
2023-04-25T07:08:29.565Z,12.44
2023-04-25T07:11:33.186Z,12.65
2023-04-25T07:14:35.614Z,12.70
2023-04-25T07:17:38.552Z,12.57
2023-04-25T07:20:41.078Z,12.56
2023-04-25T07:23:43.628Z,12.56
2023-04-25T07:26:46.567Z,12.59
2023-04-25T07:29:51.608Z,12.41
2023-04-25T07:32:53.782Z,12.44
2023-04-25T07:35:56.913Z,12.45
2023-04-25T07:38:59.074Z,12.43
2023-04-25T07:42:03.196Z,12.49
2023-04-25T07:45:06.156Z,12.64
2023-04-25T07:48:08.867Z,12.73
2023-04-25T07:51:11.408Z,12.79
2023-04-25T07:54:15.666Z,12.69
2023-04-25T07:57:20.913Z,12.68
2023-04-25T08:00:24.001Z,12.85
2023-04-25T08:03:28.825Z,13.04
2023-04-25T08:06:32.452Z,13.13
2023-04-25T08:09:36.438Z,13.28
2023-04-25T08:12:39.310Z,13.29
2023-04-25T08:15:42.616Z,12.93
2023-04-25T08:18:45.996Z,13.18
2023-04-25T08:21:48.630Z,12.96
2023-04-25T08:24:51.289Z,12.83
2023-04-25T08:27:53.880Z,12.81
2023-04-25T08:30:56.393Z,12.85
2023-04-25T08:33:59.302Z,12.98
2023-04-25T08:37:02.001Z,13.07
2023-04-25T08:40:08.129Z,13.03
2023-04-25T08:43:15.725Z,13.16
2023-04-25T08:46:19.548Z,13.18
2023-04-25T08:49:23.056Z,13.18
2023-04-25T08:52:31.175Z,13.31
2023-04-25T08:55:34.149Z,13.31
2023-04-25T08:58:37.838Z,13.36
2023-04-25T09:01:41.213Z,13.38
2023-04-25T09:04:45.116Z,13.28
2023-04-25T09:07:48.550Z,13.39
2023-04-25T09:10:53.272Z,13.49
2023-04-25T09:14:23.768Z,13.54
2023-04-25T09:17:27.138Z,13.51
2023-04-25T09:20:31.484Z,13.42
2023-04-25T09:23:42.817Z,13.45
2023-04-25T09:26:47.211Z,13.26
2023-04-25T09:29:58.358Z,13.43
2023-04-25T09:33:11.896Z,13.49
2023-04-25T09:36:14.807Z,13.56
2023-04-25T09:39:17.446Z,13.68
2023-04-25T09:42:26.562Z,13.85
2023-04-25T09:45:31.218Z,13.99
2023-04-25T09:48:33.901Z,13.98
2023-04-25T09:51:37.548Z,13.96
2023-04-25T09:54:40.606Z,14.05
2023-04-25T09:57:45.563Z,14.08
2023-04-25T10:00:48.670Z,13.89
2023-04-25T10:03:55.917Z,13.99
2023-04-25T10:07:02.924Z,14.05
2023-04-25T10:10:06.981Z,13.99
2023-04-25T10:13:09.848Z,13.82
2023-04-25T10:16:12.904Z,13.90
2023-04-25T10:19:16.325Z,13.73
2023-04-25T10:22:31.956Z,13.72
2023-04-25T10:25:34.579Z,13.79
2023-04-25T10:29:01.875Z,13.76
2023-04-25T10:32:04.494Z,14.00
2023-04-25T10:35:18.885Z,14.11
2023-04-25T10:38:21.080Z,14.16
2023-04-25T10:41:24.058Z,14.37
2023-04-25T10:44:32.796Z,14.28
2023-04-25T10:47:37.977Z,14.42
2023-04-25T10:50:40.917Z,14.30
2023-04-25T10:53:48.010Z,14.16
2023-04-25T10:56:51.898Z,14.17
2023-04-25T10:59:54.510Z,14.06
2023-04-25T11:03:00.651Z,14.17
2023-04-25T11:06:04.010Z,14.30
2023-04-25T11:09:14.378Z,14.24
2023-04-25T11:12:18.108Z,14.32
2023-04-25T11:15:20.554Z,14.57
2023-04-25T11:18:27.094Z,14.68
2023-04-25T11:21:33.404Z,14.82
2023-04-25T11:24:37.745Z,14.95
2023-04-25T11:27:51.800Z,15.06
2023-04-25T11:30:54.657Z,14.86
2023-04-25T11:34:01.524Z,14.74
2023-04-25T11:37:06.722Z,14.68
2023-04-25T11:40:10.628Z,14.57
2023-04-25T11:43:13.168Z,14.55
2023-04-25T11:46:16.362Z,14.62
2023-04-25T11:49:19.357Z,14.62
2023-04-25T11:52:22.541Z,14.73
2023-04-25T11:55:24.979Z,14.74
2023-04-25T11:58:27.830Z,14.71
2023-04-25T12:01:37.989Z,14.86
2023-04-25T12:04:42.526Z,14.97
2023-04-25T12:07:45.550Z,14.93
2023-04-25T12:10:49.020Z,14.94
2023-04-25T12:13:54.187Z,15.08
2023-04-25T12:16:58.842Z,15.24
2023-04-25T12:20:06.487Z,15.47
2023-04-25T12:23:09.125Z,15.45
2023-04-25T12:26:11.244Z,15.37
2023-04-25T12:29:22.232Z,15.30
2023-04-25T12:32:25.160Z,15.33
2023-04-25T12:35:27.596Z,15.34
2023-04-25T12:38:31.409Z,15.41
2023-04-25T12:41:33.915Z,15.44
2023-04-25T12:44:36.103Z,15.35
2023-04-25T12:47:39.564Z,15.48
2023-04-25T12:50:42.108Z,15.35
2023-04-25T12:53:44.509Z,15.49
2023-04-25T12:56:47.263Z,15.33
2023-04-25T12:59:49.695Z,15.33
2023-04-25T13:02:51.975Z,15.43
2023-04-25T13:05:55.239Z,15.29
2023-04-25T13:08:57.459Z,15.40
2023-04-25T13:11:59.911Z,15.56
2023-04-25T13:15:02.018Z,15.65
2023-04-25T13:18:06.491Z,15.74
2023-04-25T13:21:11.794Z,15.73
2023-04-25T13:24:14.141Z,15.81
2023-04-25T13:27:16.232Z,15.90
2023-04-25T13:30:18.697Z,15.98
2023-04-25T13:33:21.329Z,16.11
2023-04-25T13:36:23.961Z,15.99
2023-04-25T13:39:26.363Z,15.78
2023-04-25T13:42:29.609Z,15.84
2023-04-25T13:45:33.562Z,15.79
2023-04-25T13:48:36.331Z,15.84
2023-04-25T13:51:40.150Z,15.98
2023-04-25T13:54:42.574Z,16.00
2023-04-25T13:57:44.775Z,15.96
2023-04-25T14:00:47.771Z,15.82
2023-04-25T14:03:50.725Z,15.77
2023-04-25T14:06:53.164Z,15.80
2023-04-25T14:09:55.713Z,15.92
2023-04-25T14:12:57.788Z,16.00
2023-04-25T14:16:00.215Z,16.05
2023-04-25T14:19:02.406Z,16.03
2023-04-25T14:22:05.044Z,16.14
2023-04-25T14:25:07.426Z,16.10
2023-04-25T14:28:10.555Z,15.97
2023-04-25T14:31:12.740Z,16.00
2023-04-25T14:34:15.114Z,15.93
2023-04-25T14:37:17.230Z,15.86
2023-04-25T14:40:23.127Z,15.93
2023-04-25T14:43:25.346Z,16.10
2023-04-25T14:46:28.117Z,16.06
2023-04-25T14:49:30.535Z,16.13
2023-04-25T14:52:32.977Z,16.06
2023-04-25T14:55:35.121Z,16.03
2023-04-25T14:58:38.590Z,16.08
2023-04-25T15:01:41.342Z,16.07
2023-04-25T15:04:44.064Z,16.09
2023-04-25T15:07:46.311Z,16.12
2023-04-25T15:10:48.887Z,16.06
2023-04-25T15:13:51.268Z,15.96
2023-04-25T15:16:53.898Z,15.83
2023-04-25T15:19:56.139Z,15.86
2023-04-25T15:22:58.645Z,15.88
2023-04-25T15:26:00.760Z,15.77
